sensor_id;sensor_type;location;lat;lon;timestamp;P1;durP1;ratioP1;P2;durP2;ratioP2
85725;SDS011;76169;47.278;10.984;2024-03-23T00:52:54;0.70;;;0.70;;
85725;SDS011;76169;47.278;10.984;2024-03-23T00:55:20;0.80;;;0.80;;
85725;SDS011;76169;47.278;10.984;2024-03-23T00:57:46;0.85;;;0.85;;
85725;SDS011;76169;47.278;10.984;2024-03-23T01:00:12;1.52;;;0.80;;
85725;SDS011;76169;47.278;10.984;2024-03-23T01:02:38;0.80;;;0.80;;
85725;SDS011;76169;47.278;10.984;2024-03-23T01:05:04;0.95;;;0.80;;
85725;SDS011;76169;47.278;10.984;2024-03-23T01:07:30;1.00;;;0.90;;
85725;SDS011;76169;47.278;10.984;2024-03-23T01:09:57;1.02;;;0.93;;
85725;SDS011;76169;47.278;10.984;2024-03-23T01:12:24;0.70;;;0.70;;
85725;SDS011;76169;47.278;10.984;2024-03-23T01:14:50;1.27;;;0.80;;
85725;SDS011;76169;47.278;10.984;2024-03-23T01:17:16;1.08;;;0.80;;
85725;SDS011;76169;47.278;10.984;2024-03-23T01:19:42;1.00;;;0.90;;
85725;SDS011;76169;47.278;10.984;2024-03-23T01:22:08;2.92;;;0.90;;
85725;SDS011;76169;47.278;10.984;2024-03-23T01:24:35;1.00;;;0.90;;
85725;SDS011;76169;47.278;10.984;2024-03-23T01:27:01;0.90;;;0.77;;
85725;SDS011;76169;47.278;10.984;2024-03-23T01:29:27;1.95;;;0.80;;
85725;SDS011;76169;47.278;10.984;2024-03-23T01:31:53;1.02;;;0.93;;
85725;SDS011;76169;47.278;10.984;2024-03-23T01:34:19;1.10;;;0.90;;
85725;SDS011;76169;47.278;10.984;2024-03-23T01:36:46;0.95;;;0.85;;
85725;SDS011;76169;47.278;10.984;2024-03-23T01:39:12;1.20;;;0.82;;
85725;SDS011;76169;47.278;10.984;2024-03-23T01:41:39;0.85;;;0.70;;
85725;SDS011;76169;47.278;10.984;2024-03-23T01:44:07;1.15;;;0.70;;
85725;SDS011;76169;47.278;10.984;2024-03-23T01:46:34;0.80;;;0.80;;
85725;SDS011;76169;47.278;10.984;2024-03-23T01:49:00;1.02;;;0.70;;
85725;SDS011;76169;47.278;10.984;2024-03-23T01:51:26;0.80;;;0.80;;
85725;SDS011;76169;47.278;10.984;2024-03-23T01:53:53;1.58;;;0.90;;
85725;SDS011;76169;47.278;10.984;2024-03-23T01:56:20;0.70;;;0.70;;
85725;SDS011;76169;47.278;10.984;2024-03-23T01:58:46;0.80;;;0.80;;
85725;SDS011;76169;47.278;10.984;2024-03-23T02:01:12;1.55;;;0.98;;
85725;SDS011;76169;47.278;10.984;2024-03-23T02:03:38;2.88;;;0.88;;
85725;SDS011;76169;47.278;10.984;2024-03-23T02:06:04;1.00;;;0.90;;
85725;SDS011;76169;47.278;10.984;2024-03-23T02:08:32;0.80;;;0.80;;
85725;SDS011;76169;47.278;10.984;2024-03-23T02:10:58;1.42;;;0.80;;
85725;SDS011;76169;47.278;10.984;2024-03-23T02:13:24;1.38;;;0.88;;
85725;SDS011;76169;47.278;10.984;2024-03-23T02:15:50;0.80;;;0.73;;
85725;SDS011;76169;47.278;10.984;2024-03-23T02:18:16;1.13;;;0.90;;
85725;SDS011;76169;47.278;10.984;2024-03-23T02:20:42;0.75;;;0.70;;
85725;SDS011;76169;47.278;10.984;2024-03-23T02:23:15;1.65;;;0.80;;
85725;SDS011;76169;47.278;10.984;2024-03-23T02:25:41;0.60;;;0.60;;
85725;SDS011;76169;47.278;10.984;2024-03-23T02:28:25;1.00;;;0.90;;
85725;SDS011;76169;47.278;10.984;2024-03-23T02:30:51;0.85;;;0.70;;
85725;SDS011;76169;47.278;10.984;2024-03-23T02:33:18;1.30;;;0.82;;
85725;SDS011;76169;47.278;10.984;2024-03-23T02:35:44;0.57;;;0.57;;
85725;SDS011;76169;47.278;10.984;2024-03-23T02:38:10;0.70;;;0.70;;
85725;SDS011;76169;47.278;10.984;2024-03-23T02:40:36;0.95;;;0.80;;
85725;SDS011;76169;47.278;10.984;2024-03-23T02:43:03;0.82;;;0.77;;
85725;SDS011;76169;47.278;10.984;2024-03-23T02:45:29;1.00;;;0.80;;
85725;SDS011;76169;47.278;10.984;2024-03-23T02:47:55;0.70;;;0.70;;
85725;SDS011;76169;47.278;10.984;2024-03-23T02:50:22;0.80;;;0.80;;
85725;SDS011;76169;47.278;10.984;2024-03-23T02:52:48;1.02;;;0.85;;
85725;SDS011;76169;47.278;10.984;2024-03-23T02:55:14;1.08;;;0.80;;
85725;SDS011;76169;47.278;10.984;2024-03-23T02:57:41;1.20;;;0.93;;
85725;SDS011;76169;47.278;10.984;2024-03-23T03:00:07;0.95;;;0.75;;
85725;SDS011;76169;47.278;10.984;2024-03-23T03:02:34;0.65;;;0.65;;
85725;SDS011;76169;47.278;10.984;2024-03-23T03:05:00;0.68;;;0.68;;
85725;SDS011;76169;47.278;10.984;2024-03-23T03:07:26;1.15;;;0.88;;
85725;SDS011;76169;47.278;10.984;2024-03-23T03:09:52;1.15;;;0.80;;
85725;SDS011;76169;47.278;10.984;2024-03-23T03:12:18;0.68;;;0.63;;
85725;SDS011;76169;47.278;10.984;2024-03-23T03:14:44;1.85;;;0.82;;
85725;SDS011;76169;47.278;10.984;2024-03-23T03:17:10;0.82;;;0.73;;
85725;SDS011;76169;47.278;10.984;2024-03-23T03:19:36;0.90;;;0.80;;
85725;SDS011;76169;47.278;10.984;2024-03-23T03:22:02;0.80;;;0.75;;
85725;SDS011;76169;47.278;10.984;2024-03-23T03:24:29;1.60;;;0.73;;
85725;SDS011;76169;47.278;10.984;2024-03-23T03:26:55;1.05;;;0.90;;
85725;SDS011;76169;47.278;10.984;2024-03-23T03:29:23;0.77;;;0.77;;
85725;SDS011;76169;47.278;10.984;2024-03-23T03:31:49;1.95;;;0.77;;
85725;SDS011;76169;47.278;10.984;2024-03-23T03:34:16;1.00;;;0.60;;
85725;SDS011;76169;47.278;10.984;2024-03-23T03:36:42;1.00;;;0.80;;
85725;SDS011;76169;47.278;10.984;2024-03-23T03:39:08;0.77;;;0.70;;
85725;SDS011;76169;47.278;10.984;2024-03-23T03:41:35;0.80;;;0.80;;
85725;SDS011;76169;47.278;10.984;2024-03-23T03:44:01;1.00;;;0.90;;
85725;SDS011;76169;47.278;10.984;2024-03-23T03:46:30;0.73;;;0.70;;
85725;SDS011;76169;47.278;10.984;2024-03-23T03:48:56;1.00;;;0.80;;
85725;SDS011;76169;47.278;10.984;2024-03-23T03:51:22;1.10;;;0.70;;
85725;SDS011;76169;47.278;10.984;2024-03-23T03:53:48;1.42;;;0.75;;
85725;SDS011;76169;47.278;10.984;2024-03-23T03:56:14;0.88;;;0.80;;
85725;SDS011;76169;47.278;10.984;2024-03-23T03:58:40;0.70;;;0.70;;
85725;SDS011;76169;47.278;10.984;2024-03-23T04:01:06;0.80;;;0.80;;
85725;SDS011;76169;47.278;10.984;2024-03-23T04:03:32;0.95;;;0.80;;
85725;SDS011;76169;47.278;10.984;2024-03-23T04:05:58;0.90;;;0.80;;
85725;SDS011;76169;47.278;10.984;2024-03-23T04:08:24;0.82;;;0.70;;
85725;SDS011;76169;47.278;10.984;2024-03-23T04:10:50;0.60;;;0.60;;
85725;SDS011;76169;47.278;10.984;2024-03-23T04:13:16;0.60;;;0.60;;
85725;SDS011;76169;47.278;10.984;2024-03-23T04:15:42;1.20;;;0.82;;
85725;SDS011;76169;47.278;10.984;2024-03-23T04:18:08;1.50;;;0.80;;
85725;SDS011;76169;47.278;10.984;2024-03-23T04:20:35;1.02;;;0.90;;
85725;SDS011;76169;47.278;10.984;2024-03-23T04:23:01;0.70;;;0.70;;
85725;SDS011;76169;47.278;10.984;2024-03-23T04:25:27;0.65;;;0.65;;
85725;SDS011;76169;47.278;10.984;2024-03-23T04:27:56;0.80;;;0.80;;
85725;SDS011;76169;47.278;10.984;2024-03-23T04:30:22;0.98;;;0.75;;
85725;SDS011;76169;47.278;10.984;2024-03-23T04:32:50;0.70;;;0.70;;
85725;SDS011;76169;47.278;10.984;2024-03-23T04:35:16;1.33;;;1.17;;
85725;SDS011;76169;47.278;10.984;2024-03-23T04:37:42;0.80;;;0.70;;
85725;SDS011;76169;47.278;10.984;2024-03-23T04:40:08;1.08;;;0.70;;
85725;SDS011;76169;47.278;10.984;2024-03-23T04:42:34;0.63;;;0.63;;
85725;SDS011;76169;47.278;10.984;2024-03-23T04:45:00;0.80;;;0.80;;
85725;SDS011;76169;47.278;10.984;2024-03-23T04:47:26;3.22;;;0.90;;
85725;SDS011;76169;47.278;10.984;2024-03-23T04:49:52;0.80;;;0.80;;
85725;SDS011;76169;47.278;10.984;2024-03-23T04:52:22;0.68;;;0.68;;
85725;SDS011;76169;47.278;10.984;2024-03-23T04:54:48;0.82;;;0.60;;
85725;SDS011;76169;47.278;10.984;2024-03-23T04:57:14;0.88;;;0.80;;
85725;SDS011;76169;47.278;10.984;2024-03-23T04:59:41;1.00;;;0.70;;
85725;SDS011;76169;47.278;10.984;2024-03-23T05:02:10;0.80;;;0.80;;
85725;SDS011;76169;47.278;10.984;2024-03-23T05:04:36;0.77;;;0.77;;
85725;SDS011;76169;47.278;10.984;2024-03-23T05:07:02;0.70;;;0.68;;
85725;SDS011;76169;47.278;10.984;2024-03-23T05:09:29;1.23;;;0.75;;
85725;SDS011;76169;47.278;10.984;2024-03-23T05:11:56;1.15;;;0.77;;
85725;SDS011;76169;47.278;10.984;2024-03-23T05:14:22;0.80;;;0.70;;
85725;SDS011;76169;47.278;10.984;2024-03-23T05:16:48;0.70;;;0.70;;
85725;SDS011;76169;47.278;10.984;2024-03-23T05:19:14;0.60;;;0.60;;
85725;SDS011;76169;47.278;10.984;2024-03-23T05:21:40;0.82;;;0.70;;
85725;SDS011;76169;47.278;10.984;2024-03-23T05:24:06;0.60;;;0.60;;
85725;SDS011;76169;47.278;10.984;2024-03-23T05:26:32;0.80;;;0.80;;
85725;SDS011;76169;47.278;10.984;2024-03-23T05:28:59;0.75;;;0.70;;
85725;SDS011;76169;47.278;10.984;2024-03-23T05:31:25;1.30;;;0.77;;
85725;SDS011;76169;47.278;10.984;2024-03-23T05:33:51;1.13;;;0.70;;
85725;SDS011;76169;47.278;10.984;2024-03-23T05:36:17;0.80;;;0.80;;
85725;SDS011;76169;47.278;10.984;2024-03-23T05:38:44;0.75;;;0.70;;
85725;SDS011;76169;47.278;10.984;2024-03-23T05:41:10;0.68;;;0.68;;
85725;SDS011;76169;47.278;10.984;2024-03-23T05:43:36;0.85;;;0.82;;
85725;SDS011;76169;47.278;10.984;2024-03-23T05:46:02;0.70;;;0.60;;
85725;SDS011;76169;47.278;10.984;2024-03-23T05:48:29;0.95;;;0.82;;
85725;SDS011;76169;47.278;10.984;2024-03-23T05:50:55;1.00;;;0.90;;
85725;SDS011;76169;47.278;10.984;2024-03-23T05:53:23;0.80;;;0.80;;
85725;SDS011;76169;47.278;10.984;2024-03-23T05:55:50;0.73;;;0.73;;
85725;SDS011;76169;47.278;10.984;2024-03-23T05:58:18;0.73;;;0.60;;
85725;SDS011;76169;47.278;10.984;2024-03-23T06:00:45;0.95;;;0.70;;
85725;SDS011;76169;47.278;10.984;2024-03-23T06:03:11;0.60;;;0.60;;
85725;SDS011;76169;47.278;10.984;2024-03-23T06:05:37;0.65;;;0.60;;
85725;SDS011;76169;47.278;10.984;2024-03-23T06:08:04;1.88;;;0.80;;
85725;SDS011;76169;47.278;10.984;2024-03-23T06:10:31;1.05;;;0.82;;
85725;SDS011;76169;47.278;10.984;2024-03-23T06:12:57;0.65;;;0.65;;
85725;SDS011;76169;47.278;10.984;2024-03-23T06:15:24;0.57;;;0.57;;
85725;SDS011;76169;47.278;10.984;2024-03-23T06:17:55;0.73;;;0.70;;
85725;SDS011;76169;47.278;10.984;2024-03-23T06:20:21;0.60;;;0.60;;
85725;SDS011;76169;47.278;10.984;2024-03-23T06:22:47;0.60;;;0.60;;
85725;SDS011;76169;47.278;10.984;2024-03-23T06:25:13;1.27;;;0.70;;
85725;SDS011;76169;47.278;10.984;2024-03-23T06:27:39;0.75;;;0.70;;
85725;SDS011;76169;47.278;10.984;2024-03-23T06:30:06;1.00;;;0.90;;
85725;SDS011;76169;47.278;10.984;2024-03-23T06:32:32;0.88;;;0.70;;
85725;SDS011;76169;47.278;10.984;2024-03-23T06:34:58;0.60;;;0.60;;
85725;SDS011;76169;47.278;10.984;2024-03-23T06:37:24;0.70;;;0.68;;
85725;SDS011;76169;47.278;10.984;2024-03-23T06:39:50;0.75;;;0.70;;
85725;SDS011;76169;47.278;10.984;2024-03-23T06:42:16;0.82;;;0.73;;
85725;SDS011;76169;47.278;10.984;2024-03-23T06:44:43;1.13;;;0.82;;
85725;SDS011;76169;47.278;10.984;2024-03-23T06:47:12;0.85;;;0.80;;
85725;SDS011;76169;47.278;10.984;2024-03-23T06:49:38;0.90;;;0.77;;
85725;SDS011;76169;47.278;10.984;2024-03-23T06:52:04;1.08;;;0.77;;
85725;SDS011;76169;47.278;10.984;2024-03-23T06:54:30;1.10;;;0.88;;
85725;SDS011;76169;47.278;10.984;2024-03-23T06:56:56;0.80;;;0.80;;
85725;SDS011;76169;47.278;10.984;2024-03-23T06:59:22;2.28;;;0.80;;
85725;SDS011;76169;47.278;10.984;2024-03-23T07:01:48;1.20;;;0.80;;
85725;SDS011;76169;47.278;10.984;2024-03-23T07:04:15;1.23;;;0.70;;
85725;SDS011;76169;47.278;10.984;2024-03-23T07:06:44;0.70;;;0.70;;
85725;SDS011;76169;47.278;10.984;2024-03-23T07:09:11;0.75;;;0.75;;
85725;SDS011;76169;47.278;10.984;2024-03-23T07:11:37;0.90;;;0.90;;
85725;SDS011;76169;47.278;10.984;2024-03-23T07:14:03;1.10;;;0.80;;
85725;SDS011;76169;47.278;10.984;2024-03-23T07:16:29;0.75;;;0.70;;
85725;SDS011;76169;47.278;10.984;2024-03-23T07:18:55;0.70;;;0.70;;
85725;SDS011;76169;47.278;10.984;2024-03-23T07:21:21;1.63;;;0.77;;
85725;SDS011;76169;47.278;10.984;2024-03-23T07:23:47;1.00;;;0.88;;
85725;SDS011;76169;47.278;10.984;2024-03-23T07:26:13;1.75;;;0.80;;
85725;SDS011;76169;47.278;10.984;2024-03-23T07:28:40;0.93;;;0.85;;
85725;SDS011;76169;47.278;10.984;2024-03-23T07:31:11;1.10;;;0.93;;
85725;SDS011;76169;47.278;10.984;2024-03-23T07:33:42;0.95;;;0.85;;
85725;SDS011;76169;47.278;10.984;2024-03-23T07:36:08;1.20;;;0.80;;
85725;SDS011;76169;47.278;10.984;2024-03-23T07:38:34;0.80;;;0.80;;
85725;SDS011;76169;47.278;10.984;2024-03-23T07:41:08;0.73;;;0.63;;
85725;SDS011;76169;47.278;10.984;2024-03-23T07:43:34;1.33;;;0.82;;
85725;SDS011;76169;47.278;10.984;2024-03-23T07:46:00;1.00;;;0.90;;
85725;SDS011;76169;47.278;10.984;2024-03-23T07:48:28;0.93;;;0.73;;
85725;SDS011;76169;47.278;10.984;2024-03-23T07:50:58;1.00;;;0.90;;
85725;SDS011;76169;47.278;10.984;2024-03-23T07:53:24;0.80;;;0.70;;
85725;SDS011;76169;47.278;10.984;2024-03-23T07:55:58;0.80;;;0.80;;
85725;SDS011;76169;47.278;10.984;2024-03-23T07:58:24;1.13;;;0.88;;
85725;SDS011;76169;47.278;10.984;2024-03-23T08:00:51;1.08;;;0.70;;
85725;SDS011;76169;47.278;10.984;2024-03-23T08:03:17;0.77;;;0.73;;
85725;SDS011;76169;47.278;10.984;2024-03-23T08:05:43;1.10;;;0.80;;
85725;SDS011;76169;47.278;10.984;2024-03-23T08:08:12;1.10;;;0.80;;
85725;SDS011;76169;47.278;10.984;2024-03-23T08:10:49;0.82;;;0.73;;
85725;SDS011;76169;47.278;10.984;2024-03-23T08:13:15;1.25;;;0.80;;
85725;SDS011;76169;47.278;10.984;2024-03-23T08:15:41;1.08;;;0.90;;
85725;SDS011;76169;47.278;10.984;2024-03-23T08:18:07;1.40;;;0.80;;
85725;SDS011;76169;47.278;10.984;2024-03-23T08:20:33;0.70;;;0.70;;
85725;SDS011;76169;47.278;10.984;2024-03-23T08:22:59;1.73;;;0.90;;
85725;SDS011;76169;47.278;10.984;2024-03-23T08:25:26;0.75;;;0.70;;
85725;SDS011;76169;47.278;10.984;2024-03-23T08:27:52;0.80;;;0.80;;
85725;SDS011;76169;47.278;10.984;2024-03-23T08:30:18;0.80;;;0.80;;
85725;SDS011;76169;47.278;10.984;2024-03-23T08:32:44;0.90;;;0.75;;
85725;SDS011;76169;47.278;10.984;2024-03-23T08:35:11;2.30;;;0.90;;
85725;SDS011;76169;47.278;10.984;2024-03-23T08:37:37;1.23;;;0.80;;
85725;SDS011;76169;47.278;10.984;2024-03-23T08:40:03;0.85;;;0.82;;
85725;SDS011;76169;47.278;10.984;2024-03-23T08:42:29;1.40;;;1.00;;
85725;SDS011;76169;47.278;10.984;2024-03-23T08:44:55;1.73;;;0.93;;
85725;SDS011;76169;47.278;10.984;2024-03-23T08:47:21;1.88;;;0.80;;
85725;SDS011;76169;47.278;10.984;2024-03-23T08:49:48;0.93;;;0.85;;
85725;SDS011;76169;47.278;10.984;2024-03-23T08:52:14;1.25;;;0.70;;
85725;SDS011;76169;47.278;10.984;2024-03-23T08:54:40;1.00;;;0.80;;
85725;SDS011;76169;47.278;10.984;2024-03-23T08:57:06;1.00;;;0.90;;
85725;SDS011;76169;47.278;10.984;2024-03-23T08:59:33;1.17;;;0.95;;
85725;SDS011;76169;47.278;10.984;2024-03-23T09:01:59;1.45;;;0.90;;
85725;SDS011;76169;47.278;10.984;2024-03-23T09:04:25;2.05;;;0.65;;
85725;SDS011;76169;47.278;10.984;2024-03-23T09:06:51;1.00;;;0.75;;
85725;SDS011;76169;47.278;10.984;2024-03-23T09:09:17;1.52;;;0.82;;
85725;SDS011;76169;47.278;10.984;2024-03-23T09:11:45;0.88;;;0.80;;
85725;SDS011;76169;47.278;10.984;2024-03-23T09:14:11;1.33;;;0.70;;
85725;SDS011;76169;47.278;10.984;2024-03-23T09:16:37;2.55;;;0.90;;
85725;SDS011;76169;47.278;10.984;2024-03-23T09:19:03;1.25;;;0.80;;
85725;SDS011;76169;47.278;10.984;2024-03-23T09:21:29;1.15;;;0.70;;
85725;SDS011;76169;47.278;10.984;2024-03-23T09:23:55;1.05;;;0.88;;
85725;SDS011;76169;47.278;10.984;2024-03-23T09:26:21;1.85;;;0.90;;
85725;SDS011;76169;47.278;10.984;2024-03-23T09:28:50;2.20;;;0.98;;
85725;SDS011;76169;47.278;10.984;2024-03-23T09:31:16;2.22;;;0.90;;
85725;SDS011;76169;47.278;10.984;2024-03-23T09:33:43;4.90;;;0.80;;
85725;SDS011;76169;47.278;10.984;2024-03-23T09:36:09;2.78;;;0.93;;
85725;SDS011;76169;47.278;10.984;2024-03-23T09:38:35;3.63;;;0.88;;
85725;SDS011;76169;47.278;10.984;2024-03-23T09:41:06;1.17;;;0.90;;
85725;SDS011;76169;47.278;10.984;2024-03-23T09:43:32;1.65;;;0.80;;
85725;SDS011;76169;47.278;10.984;2024-03-23T09:45:58;2.17;;;0.95;;
85725;SDS011;76169;47.278;10.984;2024-03-23T09:48:24;2.63;;;0.70;;
85725;SDS011;76169;47.278;10.984;2024-03-23T09:50:51;1.30;;;0.60;;
85725;SDS011;76169;47.278;10.984;2024-03-23T09:53:17;2.33;;;0.80;;
85725;SDS011;76169;47.278;10.984;2024-03-23T09:55:44;3.42;;;1.00;;
85725;SDS011;76169;47.278;10.984;2024-03-23T09:58:17;2.28;;;1.00;;
85725;SDS011;76169;47.278;10.984;2024-03-23T10:00:43;3.67;;;0.90;;
85725;SDS011;76169;47.278;10.984;2024-03-23T10:03:09;1.05;;;0.70;;
85725;SDS011;76169;47.278;10.984;2024-03-23T10:05:36;1.42;;;0.95;;
85725;SDS011;76169;47.278;10.984;2024-03-23T10:10:44;0.98;;;0.73;;
85725;SDS011;76169;47.278;10.984;2024-03-23T10:13:10;1.42;;;0.80;;
85725;SDS011;76169;47.278;10.984;2024-03-23T10:15:39;1.27;;;0.90;;
85725;SDS011;76169;47.278;10.984;2024-03-23T10:18:18;1.40;;;1.00;;
85725;SDS011;76169;47.278;10.984;2024-03-23T10:23:30;0.90;;;0.80;;
85725;SDS011;76169;47.278;10.984;2024-03-23T10:26:12;3.22;;;1.10;;
85725;SDS011;76169;47.278;10.984;2024-03-23T10:28:55;4.78;;;1.05;;
85725;SDS011;76169;47.278;10.984;2024-03-23T10:31:33;1.40;;;0.90;;
85725;SDS011;76169;47.278;10.984;2024-03-23T10:34:03;3.35;;;0.88;;
85725;SDS011;76169;47.278;10.984;2024-03-23T10:36:29;3.08;;;1.23;;
85725;SDS011;76169;47.278;10.984;2024-03-23T10:38:56;4.82;;;1.10;;
85725;SDS011;76169;47.278;10.984;2024-03-23T10:41:28;6.15;;;1.08;;
85725;SDS011;76169;47.278;10.984;2024-03-23T10:43:55;4.10;;;1.20;;
85725;SDS011;76169;47.278;10.984;2024-03-23T10:46:21;2.63;;;0.75;;
85725;SDS011;76169;47.278;10.984;2024-03-23T10:48:47;2.92;;;0.80;;
85725;SDS011;76169;47.278;10.984;2024-03-23T10:51:14;1.08;;;0.73;;
85725;SDS011;76169;47.278;10.984;2024-03-23T10:53:40;3.40;;;0.63;;
85725;SDS011;76169;47.278;10.984;2024-03-23T10:56:07;5.50;;;1.00;;
85725;SDS011;76169;47.278;10.984;2024-03-23T11:00:59;1.05;;;0.60;;
85725;SDS011;76169;47.278;10.984;2024-03-23T11:06:06;2.28;;;0.60;;
85725;SDS011;76169;47.278;10.984;2024-03-23T11:08:36;1.75;;;0.80;;
85725;SDS011;76169;47.278;10.984;2024-03-23T11:13:38;3.80;;;0.75;;
85725;SDS011;76169;47.278;10.984;2024-03-23T11:16:17;1.23;;;0.60;;
85725;SDS011;76169;47.278;10.984;2024-03-23T11:18:43;2.88;;;0.63;;
85725;SDS011;76169;47.278;10.984;2024-03-23T11:21:10;2.50;;;0.68;;
85725;SDS011;76169;47.278;10.984;2024-03-23T11:23:36;2.28;;;0.60;;
85725;SDS011;76169;47.278;10.984;2024-03-23T11:26:02;1.17;;;0.50;;
85725;SDS011;76169;47.278;10.984;2024-03-23T11:28:32;0.55;;;0.38;;
85725;SDS011;76169;47.278;10.984;2024-03-23T11:30:58;0.60;;;0.60;;
85725;SDS011;76169;47.278;10.984;2024-03-23T11:33:24;1.48;;;0.80;;
85725;SDS011;76169;47.278;10.984;2024-03-23T11:35:50;2.55;;;0.90;;
85725;SDS011;76169;47.278;10.984;2024-03-23T11:38:17;0.50;;;0.50;;
85725;SDS011;76169;47.278;10.984;2024-03-23T11:40:53;0.50;;;0.43;;
85725;SDS011;76169;47.278;10.984;2024-03-23T11:43:19;1.00;;;0.60;;
85725;SDS011;76169;47.278;10.984;2024-03-23T11:45:50;0.52;;;0.43;;
85725;SDS011;76169;47.278;10.984;2024-03-23T11:48:18;1.65;;;0.40;;
85725;SDS011;76169;47.278;10.984;2024-03-23T11:50:45;1.58;;;0.80;;
85725;SDS011;76169;47.278;10.984;2024-03-23T11:53:12;0.55;;;0.40;;
85725;SDS011;76169;47.278;10.984;2024-03-23T11:58:08;0.70;;;0.43;;
85725;SDS011;76169;47.278;10.984;2024-03-23T12:00:34;3.30;;;0.60;;
85725;SDS011;76169;47.278;10.984;2024-03-23T12:03:04;0.90;;;0.40;;
85725;SDS011;76169;47.278;10.984;2024-03-23T12:05:30;1.00;;;0.50;;
85725;SDS011;76169;47.278;10.984;2024-03-23T12:08:39;0.85;;;0.38;;
85725;SDS011;76169;47.278;10.984;2024-03-23T12:10:50;5.57;;;0.52;;
85725;SDS011;76169;47.278;10.984;2024-03-23T12:13:20;1.40;;;0.50;;
85725;SDS011;76169;47.278;10.984;2024-03-23T12:15:47;2.42;;;0.50;;
85725;SDS011;76169;47.278;10.984;2024-03-23T12:18:13;0.57;;;0.40;;
85725;SDS011;76169;47.278;10.984;2024-03-23T12:20:39;1.10;;;0.40;;
85725;SDS011;76169;47.278;10.984;2024-03-23T12:23:10;1.05;;;0.40;;
85725;SDS011;76169;47.278;10.984;2024-03-23T12:25:37;0.85;;;0.32;;
85725;SDS011;76169;47.278;10.984;2024-03-23T12:28:03;0.77;;;0.50;;
85725;SDS011;76169;47.278;10.984;2024-03-23T12:30:31;0.30;;;0.30;;
85725;SDS011;76169;47.278;10.984;2024-03-23T12:32:57;0.60;;;0.50;;
85725;SDS011;76169;47.278;10.984;2024-03-23T12:35:23;0.47;;;0.40;;
85725;SDS011;76169;47.278;10.984;2024-03-23T12:37:49;0.60;;;0.40;;
85725;SDS011;76169;47.278;10.984;2024-03-23T12:40:15;0.35;;;0.35;;
85725;SDS011;76169;47.278;10.984;2024-03-23T12:42:41;0.52;;;0.40;;
85725;SDS011;76169;47.278;10.984;2024-03-23T12:45:07;1.60;;;0.32;;
85725;SDS011;76169;47.278;10.984;2024-03-23T12:47:33;0.50;;;0.40;;
85725;SDS011;76169;47.278;10.984;2024-03-23T12:49:59;0.60;;;0.50;;
85725;SDS011;76169;47.278;10.984;2024-03-23T12:52:25;0.77;;;0.50;;
85725;SDS011;76169;47.278;10.984;2024-03-23T12:54:55;0.50;;;0.30;;
85725;SDS011;76169;47.278;10.984;2024-03-23T12:57:25;0.30;;;0.30;;
85725;SDS011;76169;47.278;10.984;2024-03-23T12:59:51;0.30;;;0.30;;
85725;SDS011;76169;47.278;10.984;2024-03-23T13:02:18;0.40;;;0.40;;
85725;SDS011;76169;47.278;10.984;2024-03-23T13:04:45;0.35;;;0.30;;
85725;SDS011;76169;47.278;10.984;2024-03-23T13:07:11;2.50;;;0.40;;
85725;SDS011;76169;47.278;10.984;2024-03-23T13:09:37;1.30;;;0.50;;
85725;SDS011;76169;47.278;10.984;2024-03-23T13:12:03;0.20;;;0.20;;
85725;SDS011;76169;47.278;10.984;2024-03-23T13:14:29;0.25;;;0.25;;
85725;SDS011;76169;47.278;10.984;2024-03-23T13:16:55;0.40;;;0.30;;
85725;SDS011;76169;47.278;10.984;2024-03-23T13:19:22;0.50;;;0.40;;
85725;SDS011;76169;47.278;10.984;2024-03-23T13:21:52;0.38;;;0.28;;
85725;SDS011;76169;47.278;10.984;2024-03-23T13:24:20;0.70;;;0.40;;
85725;SDS011;76169;47.278;10.984;2024-03-23T13:26:46;0.30;;;0.30;;
85725;SDS011;76169;47.278;10.984;2024-03-23T13:29:12;0.38;;;0.30;;
85725;SDS011;76169;47.278;10.984;2024-03-23T13:31:39;0.30;;;0.30;;
85725;SDS011;76169;47.278;10.984;2024-03-23T13:34:05;0.20;;;0.20;;
85725;SDS011;76169;47.278;10.984;2024-03-23T13:36:31;0.55;;;0.40;;
85725;SDS011;76169;47.278;10.984;2024-03-23T13:38:57;0.73;;;0.40;;
85725;SDS011;76169;47.278;10.984;2024-03-23T13:41:23;0.25;;;0.25;;
85725;SDS011;76169;47.278;10.984;2024-03-23T13:43:49;0.40;;;0.40;;
85725;SDS011;76169;47.278;10.984;2024-03-23T13:46:15;0.30;;;0.30;;
85725;SDS011;76169;47.278;10.984;2024-03-23T13:48:41;0.50;;;0.40;;
85725;SDS011;76169;47.278;10.984;2024-03-23T13:51:07;2.08;;;0.30;;
85725;SDS011;76169;47.278;10.984;2024-03-23T13:53:34;0.57;;;0.30;;
85725;SDS011;76169;47.278;10.984;2024-03-23T13:56:00;1.20;;;0.50;;
85725;SDS011;76169;47.278;10.984;2024-03-23T13:58:26;0.30;;;0.30;;
85725;SDS011;76169;47.278;10.984;2024-03-23T14:00:52;0.95;;;0.32;;
85725;SDS011;76169;47.278;10.984;2024-03-23T14:03:18;0.20;;;0.20;;
85725;SDS011;76169;47.278;10.984;2024-03-23T14:05:45;0.30;;;0.25;;
85725;SDS011;76169;47.278;10.984;2024-03-23T14:08:12;0.30;;;0.30;;
85725;SDS011;76169;47.278;10.984;2024-03-23T14:10:41;0.45;;;0.30;;
85725;SDS011;76169;47.278;10.984;2024-03-23T14:13:08;0.55;;;0.30;;
85725;SDS011;76169;47.278;10.984;2024-03-23T14:15:34;2.63;;;0.40;;
85725;SDS011;76169;47.278;10.984;2024-03-23T14:18:02;0.52;;;0.40;;
85725;SDS011;76169;47.278;10.984;2024-03-23T14:20:28;0.30;;;0.25;;
85725;SDS011;76169;47.278;10.984;2024-03-23T14:22:54;0.50;;;0.28;;
85725;SDS011;76169;47.278;10.984;2024-03-23T14:25:21;0.60;;;0.40;;
85725;SDS011;76169;47.278;10.984;2024-03-23T14:27:52;3.05;;;0.32;;
85725;SDS011;76169;47.278;10.984;2024-03-23T14:30:18;0.40;;;0.40;;
85725;SDS011;76169;47.278;10.984;2024-03-23T14:32:44;0.85;;;0.30;;
85725;SDS011;76169;47.278;10.984;2024-03-23T14:35:10;0.30;;;0.30;;
85725;SDS011;76169;47.278;10.984;2024-03-23T14:37:37;0.30;;;0.30;;
85725;SDS011;76169;47.278;10.984;2024-03-23T14:40:03;0.50;;;0.30;;
85725;SDS011;76169;47.278;10.984;2024-03-23T14:42:29;0.30;;;0.30;;
85725;SDS011;76169;47.278;10.984;2024-03-23T14:44:57;0.45;;;0.30;;
85725;SDS011;76169;47.278;10.984;2024-03-23T14:47:23;0.28;;;0.28;;
85725;SDS011;76169;47.278;10.984;2024-03-23T14:49:49;0.28;;;0.28;;
85725;SDS011;76169;47.278;10.984;2024-03-23T14:52:19;0.30;;;0.30;;
85725;SDS011;76169;47.278;10.984;2024-03-23T14:54:45;0.32;;;0.30;;
85725;SDS011;76169;47.278;10.984;2024-03-23T14:57:11;1.48;;;0.22;;
85725;SDS011;76169;47.278;10.984;2024-03-23T14:59:40;0.30;;;0.30;;
85725;SDS011;76169;47.278;10.984;2024-03-23T15:02:07;0.55;;;0.25;;
85725;SDS011;76169;47.278;10.984;2024-03-23T15:04:33;0.30;;;0.30;;
85725;SDS011;76169;47.278;10.984;2024-03-23T15:06:59;0.35;;;0.30;;
85725;SDS011;76169;47.278;10.984;2024-03-23T15:09:25;0.40;;;0.40;;
85725;SDS011;76169;47.278;10.984;2024-03-23T15:11:51;0.50;;;0.40;;
85725;SDS011;76169;47.278;10.984;2024-03-23T15:14:20;0.30;;;0.30;;
85725;SDS011;76169;47.278;10.984;2024-03-23T15:16:46;0.30;;;0.30;;
85725;SDS011;76169;47.278;10.984;2024-03-23T15:19:14;0.20;;;0.20;;
85725;SDS011;76169;47.278;10.984;2024-03-23T15:21:42;0.30;;;0.20;;
85725;SDS011;76169;47.278;10.984;2024-03-23T15:24:08;0.30;;;0.30;;
85725;SDS011;76169;47.278;10.984;2024-03-23T15:26:38;0.20;;;0.20;;
85725;SDS011;76169;47.278;10.984;2024-03-23T15:29:04;0.40;;;0.30;;
85725;SDS011;76169;47.278;10.984;2024-03-23T15:31:37;0.38;;;0.30;;
85725;SDS011;76169;47.278;10.984;2024-03-23T15:34:03;0.30;;;0.20;;
85725;SDS011;76169;47.278;10.984;2024-03-23T15:36:30;0.55;;;0.25;;
85725;SDS011;76169;47.278;10.984;2024-03-23T15:38:56;0.93;;;0.28;;